BAW479 LEIB-EGLL
Flight info
| Callsign | BAW479 |
|---|---|
| Flight time | 1h 54m |
| Altitude | 34000 |
| Route | EPAMA N856 EBROX DCT UMURE DCT XIKEN DCT KARES DCT ARBEK DCT REBUL DCT USKAR DCT MOPAS DCT GIROM DCT AGN DCT SECHE DCT UVELI DCT CNA DCT MANAK UY110 REVTU UP87 ROXOG |
| Aircraft | A20N/M-SDE2E3FGHIRWXY/LB1 |
Departure
| Time | 2026-05-04 18:12 |
|---|---|
| Airport | Ibiza Airport (LEIB) |
Arrival
| Time | 2026-05-04 20:06 |
|---|---|
| Airport | London Heathrow Airport (EGLL) |
| Time | Latitude | Longitude | Altitude | Speed | Heading |
|---|---|---|---|---|---|
| 2026-05-04 17:38 | 38.87577 | 1.36929 | 28 ft | 0 kts | 333° |
| 2026-05-04 17:50 | 38.87578 | 1.36929 | 28 ft | 0 kts | 333° |
| 2026-05-04 17:52 | 38.87577 | 1.36929 | 28 ft | 0 kts | 333° |
| 2026-05-04 17:59 | 38.87575 | 1.36930 | 28 ft | 0 kts | 332° |
| 2026-05-04 18:00 | 38.87573 | 1.36932 | 28 ft | 1 kts | 332° |
| 2026-05-04 18:00 | 38.87564 | 1.36937 | 28 ft | 2 kts | 332° |
| 2026-05-04 18:00 | 38.87556 | 1.36943 | 28 ft | 2 kts | 332° |
| 2026-05-04 18:00 | 38.87539 | 1.36955 | 28 ft | 3 kts | 332° |
| 2026-05-04 18:01 | 38.87531 | 1.36960 | 28 ft | 3 kts | 345° |
| 2026-05-04 18:01 | 38.87514 | 1.36961 | 28 ft | 3 kts | 26° |
| 2026-05-04 18:01 | 38.87502 | 1.36949 | 28 ft | 0 kts | 62° |
| 2026-05-04 18:05 | 38.87517 | 1.36984 | 28 ft | 13 kts | 60° |
| 2026-05-04 18:05 | 38.87564 | 1.37096 | 28 ft | 15 kts | 60° |
| 2026-05-04 18:05 | 38.87611 | 1.37208 | 28 ft | 14 kts | 63° |
| 2026-05-04 18:05 | 38.87653 | 1.37309 | 28 ft | 12 kts | 62° |
| 2026-05-04 18:06 | 38.87693 | 1.37498 | 29 ft | 8 kts | 132° |
| 2026-05-04 18:06 | 38.87660 | 1.37504 | 29 ft | 8 kts | 163° |
| 2026-05-04 18:06 | 38.87592 | 1.37556 | 29 ft | 11 kts | 138° |
| 2026-05-04 18:07 | 38.87594 | 1.37604 | 29 ft | 5 kts | 71° |
| 2026-05-04 18:07 | 38.87608 | 1.37648 | 29 ft | 6 kts | 67° |
| 2026-05-04 18:07 | 38.87632 | 1.37713 | 29 ft | 9 kts | 62° |
| 2026-05-04 18:07 | 38.87671 | 1.37795 | 29 ft | 12 kts | 58° |
| 2026-05-04 18:08 | 38.87718 | 1.37901 | 29 ft | 15 kts | 60° |
| 2026-05-04 18:08 | 38.87772 | 1.38031 | 29 ft | 18 kts | 62° |
| 2026-05-04 18:08 | 38.87834 | 1.38182 | 29 ft | 21 kts | 62° |
| 2026-05-04 18:08 | 38.87905 | 1.38358 | 29 ft | 23 kts | 62° |
| 2026-05-04 18:09 | 38.88004 | 1.38592 | 30 ft | 3 kts | 73° |
| 2026-05-04 18:09 | 38.87961 | 1.38656 | 29 ft | 0 kts | 148° |
| 2026-05-04 18:10 | 38.87960 | 1.38657 | 29 ft | 0 kts | 148° |
| 2026-05-04 18:10 | 38.87953 | 1.38662 | 29 ft | 3 kts | 148° |
| 2026-05-04 18:10 | 38.87885 | 1.38712 | 27 ft | 0 kts | 160° |
| 2026-05-04 18:11 | 38.87853 | 1.38683 | 27 ft | 11 kts | 235° |
| 2026-05-04 18:11 | 38.87802 | 1.38562 | 28 ft | 33 kts | 241° |
| 2026-05-04 18:11 | 38.87585 | 1.38040 | 30 ft | 98 kts | 242° |
| 2026-05-04 18:11 | 38.87183 | 1.37072 | 121 ft | 136 kts | 241° |
| 2026-05-04 18:12 | 38.86742 | 1.35976 | 698 ft | 136 kts | 240° |
| 2026-05-04 18:12 | 38.86349 | 1.34906 | 1462 ft | 128 kts | 241° |
| 2026-05-04 18:12 | 38.85965 | 1.33866 | 2059 ft | 135 kts | 242° |
| 2026-05-04 18:12 | 38.85521 | 1.32713 | 2414 ft | 155 kts | 242° |
| 2026-05-04 18:13 | 38.85001 | 1.31394 | 2817 ft | 175 kts | 242° |
| 2026-05-04 18:13 | 38.84413 | 1.29916 | 3254 ft | 197 kts | 242° |
| 2026-05-04 18:13 | 38.83362 | 1.26614 | 4903 ft | 207 kts | 266° |
| 2026-05-04 18:14 | 38.83618 | 1.24797 | 5802 ft | 211 kts | 292° |
| 2026-05-04 18:14 | 38.84535 | 1.23302 | 6634 ft | 222 kts | 319° |
| 2026-05-04 18:14 | 38.85838 | 1.22103 | 7235 ft | 240 kts | 320° |
| 2026-05-04 18:15 | 38.88679 | 1.19526 | 8748 ft | 255 kts | 319° |
| 2026-05-04 18:15 | 38.91719 | 1.16976 | 10200 ft | 282 kts | 335° |
| 2026-05-04 18:15 | 38.93762 | 1.16557 | 10522 ft | 314 kts | 355° |
| 2026-05-04 18:16 | 38.96039 | 1.16706 | 10815 ft | 340 kts | 1° |
| 2026-05-04 18:16 | 38.98463 | 1.17028 | 11235 ft | 357 kts | 2° |
| 2026-05-04 18:16 | 39.00106 | 1.17245 | 11733 ft | 360 kts | 1° |
| 2026-05-04 18:17 | 39.05136 | 1.17778 | 13270 ft | 369 kts | 359° |
| 2026-05-04 18:17 | 39.07742 | 1.17996 | 14003 ft | 374 kts | 358° |
| 2026-05-04 18:17 | 39.12980 | 1.18400 | 15399 ft | 381 kts | 358° |
| 2026-05-04 18:18 | 39.15639 | 1.18603 | 16066 ft | 385 kts | 358° |
| 2026-05-04 18:18 | 39.18326 | 1.18809 | 16742 ft | 389 kts | 358° |
| 2026-05-04 18:18 | 39.21011 | 1.19016 | 17395 ft | 393 kts | 358° |
| 2026-05-04 18:18 | 39.23754 | 1.19228 | 18048 ft | 398 kts | 358° |
| 2026-05-04 18:19 | 39.29325 | 1.19658 | 19167 ft | 407 kts | 357° |
| 2026-05-04 18:19 | 39.32182 | 1.19879 | 19713 ft | 411 kts | 357° |
| 2026-05-04 18:19 | 39.35044 | 1.20101 | 20269 ft | 416 kts | 357° |
| 2026-05-04 18:20 | 39.37958 | 1.20326 | 20774 ft | 421 kts | 357° |
| 2026-05-04 18:20 | 39.40897 | 1.20554 | 21331 ft | 425 kts | 357° |
| 2026-05-04 18:20 | 39.43862 | 1.20785 | 21859 ft | 429 kts | 357° |
| 2026-05-04 18:20 | 39.46848 | 1.21017 | 22389 ft | 433 kts | 357° |
| 2026-05-04 18:21 | 39.49855 | 1.21250 | 22909 ft | 437 kts | 357° |
| 2026-05-04 18:21 | 39.52906 | 1.21487 | 23427 ft | 441 kts | 357° |
| 2026-05-04 18:21 | 39.56001 | 1.21725 | 23781 ft | 445 kts | 356° |
| 2026-05-04 18:21 | 39.59096 | 1.21959 | 24004 ft | 447 kts | 356° |
| 2026-05-04 18:22 | 39.62218 | 1.22198 | 24462 ft | 449 kts | 356° |
| 2026-05-04 18:22 | 39.65349 | 1.22441 | 24936 ft | 452 kts | 356° |
| 2026-05-04 18:22 | 39.68275 | 1.22668 | 25343 ft | 454 kts | 356° |
| 2026-05-04 18:22 | 39.71027 | 1.22883 | 25717 ft | 457 kts | 356° |
| 2026-05-04 18:23 | 39.74212 | 1.23133 | 26134 ft | 460 kts | 357° |
| 2026-05-04 18:23 | 39.77402 | 1.23383 | 26539 ft | 463 kts | 357° |
| 2026-05-04 18:23 | 39.80635 | 1.23637 | 26966 ft | 465 kts | 357° |
| 2026-05-04 18:23 | 39.83879 | 1.23892 | 27367 ft | 468 kts | 357° |
| 2026-05-04 18:24 | 39.87139 | 1.24149 | 27752 ft | 471 kts | 357° |
| 2026-05-04 18:24 | 39.90325 | 1.24400 | 28114 ft | 473 kts | 357° |
| 2026-05-04 18:24 | 39.93592 | 1.24658 | 28475 ft | 476 kts | 357° |
| 2026-05-04 18:24 | 39.96930 | 1.24922 | 28823 ft | 478 kts | 357° |
| 2026-05-04 18:25 | 40.00262 | 1.25185 | 29163 ft | 481 kts | 357° |
| 2026-05-04 18:25 | 40.03600 | 1.25449 | 29533 ft | 483 kts | 357° |
| 2026-05-04 18:25 | 40.06940 | 1.25714 | 29892 ft | 485 kts | 357° |
| 2026-05-04 18:25 | 40.10342 | 1.25984 | 30178 ft | 487 kts | 357° |
| 2026-05-04 18:26 | 40.13774 | 1.26256 | 30471 ft | 489 kts | 357° |
| 2026-05-04 18:26 | 40.17130 | 1.26523 | 30752 ft | 491 kts | 357° |
| 2026-05-04 18:26 | 40.20556 | 1.26796 | 31041 ft | 493 kts | 357° |
| 2026-05-04 18:26 | 40.23979 | 1.27069 | 31400 ft | 493 kts | 357° |
| 2026-05-04 18:27 | 40.27394 | 1.27342 | 31831 ft | 492 kts | 358° |
| 2026-05-04 18:27 | 40.30805 | 1.27616 | 32209 ft | 491 kts | 358° |
| 2026-05-04 18:27 | 40.34221 | 1.27867 | 32573 ft | 489 kts | 355° |
| 2026-05-04 18:27 | 40.37586 | 1.27713 | 32914 ft | 482 kts | 347° |
| 2026-05-04 18:28 | 40.40916 | 1.27242 | 33251 ft | 481 kts | 347° |
| 2026-05-04 18:28 | 40.44238 | 1.26789 | 33598 ft | 480 kts | 347° |
| 2026-05-04 18:28 | 40.47565 | 1.26343 | 33890 ft | 480 kts | 347° |
| 2026-05-04 18:28 | 40.50880 | 1.25898 | 33919 ft | 478 kts | 347° |
| 2026-05-04 18:29 | 40.57485 | 1.25005 | 33920 ft | 477 kts | 347° |
| 2026-05-04 18:29 | 40.64102 | 1.24103 | 33920 ft | 477 kts | 347° |
| 2026-05-04 18:30 | 40.74013 | 1.22749 | 33920 ft | 477 kts | 347° |
| 2026-05-04 18:31 | 40.80617 | 1.21845 | 33923 ft | 477 kts | 347° |
| 2026-05-04 18:31 | 40.87222 | 1.20938 | 33935 ft | 477 kts | 347° |
| 2026-05-04 18:32 | 40.93834 | 1.20028 | 33956 ft | 478 kts | 348° |
| 2026-05-04 18:32 | 41.00451 | 1.19118 | 33965 ft | 478 kts | 348° |
| 2026-05-04 18:33 | 41.07060 | 1.18206 | 33972 ft | 477 kts | 348° |
| 2026-05-04 18:33 | 41.13599 | 1.17301 | 33987 ft | 477 kts | 348° |
| 2026-05-04 18:34 | 41.20292 | 1.16498 | 33968 ft | 479 kts | 349° |
| 2026-05-04 18:34 | 41.26946 | 1.15848 | 33962 ft | 479 kts | 349° |
| 2026-05-04 18:35 | 41.33578 | 1.15165 | 33951 ft | 479 kts | 349° |
| 2026-05-04 18:35 | 41.40240 | 1.14467 | 33975 ft | 480 kts | 349° |
| 2026-05-04 18:36 | 41.46901 | 1.13766 | 33935 ft | 480 kts | 349° |
| 2026-05-04 18:36 | 41.53555 | 1.13066 | 33928 ft | 480 kts | 349° |
| 2026-05-04 18:37 | 41.60220 | 1.12360 | 33924 ft | 480 kts | 349° |
| 2026-05-04 18:37 | 41.66887 | 1.11654 | 33929 ft | 480 kts | 349° |
| 2026-05-04 18:38 | 41.73499 | 1.10953 | 33936 ft | 480 kts | 349° |
| 2026-05-04 18:38 | 41.80205 | 1.10239 | 33941 ft | 481 kts | 350° |
| 2026-05-04 18:39 | 41.86871 | 1.09529 | 33949 ft | 481 kts | 350° |
| 2026-05-04 18:39 | 41.93543 | 1.08816 | 33957 ft | 481 kts | 350° |
| 2026-05-04 18:40 | 42.00181 | 1.08105 | 33958 ft | 482 kts | 350° |
| 2026-05-04 18:40 | 42.06861 | 1.07389 | 33953 ft | 482 kts | 350° |
| 2026-05-04 18:41 | 42.13548 | 1.06670 | 33950 ft | 482 kts | 350° |
| 2026-05-04 18:41 | 42.20249 | 1.05949 | 33951 ft | 483 kts | 350° |
| 2026-05-04 18:42 | 42.26960 | 1.05225 | 33923 ft | 484 kts | 350° |
| 2026-05-04 18:42 | 42.33659 | 1.04504 | 33937 ft | 484 kts | 350° |
| 2026-05-04 18:43 | 42.40395 | 1.03775 | 33967 ft | 484 kts | 351° |
| 2026-05-04 18:43 | 42.47117 | 1.03044 | 33941 ft | 484 kts | 351° |
| 2026-05-04 18:44 | 42.53828 | 1.02316 | 33947 ft | 484 kts | 351° |
| 2026-05-04 18:44 | 42.60547 | 1.01580 | 33944 ft | 484 kts | 351° |
| 2026-05-04 18:45 | 42.67233 | 1.00845 | 33946 ft | 484 kts | 351° |
| 2026-05-04 18:45 | 42.73964 | 1.00106 | 33959 ft | 484 kts | 351° |
| 2026-05-04 18:46 | 42.80680 | 0.99369 | 33965 ft | 484 kts | 351° |
| 2026-05-04 18:46 | 42.87396 | 0.98629 | 33965 ft | 484 kts | 351° |
| 2026-05-04 18:47 | 42.94109 | 0.97890 | 33976 ft | 484 kts | 351° |
| 2026-05-04 18:47 | 43.00826 | 0.97150 | 33975 ft | 485 kts | 351° |
| 2026-05-04 18:48 | 43.07542 | 0.96405 | 33986 ft | 485 kts | 352° |
| 2026-05-04 18:48 | 43.14260 | 0.95661 | 33986 ft | 484 kts | 351° |
| 2026-05-04 18:49 | 43.20924 | 0.94921 | 33981 ft | 484 kts | 352° |
| 2026-05-04 18:49 | 43.27704 | 0.94164 | 33976 ft | 484 kts | 352° |
| 2026-05-04 18:50 | 43.34309 | 0.93428 | 33977 ft | 484 kts | 352° |
| 2026-05-04 18:50 | 43.41025 | 0.92676 | 33971 ft | 484 kts | 352° |
| 2026-05-04 18:51 | 43.47732 | 0.91923 | 33961 ft | 484 kts | 352° |
| 2026-05-04 18:51 | 43.54433 | 0.91171 | 33961 ft | 483 kts | 352° |
| 2026-05-04 18:52 | 43.61144 | 0.90415 | 33957 ft | 483 kts | 352° |
| 2026-05-04 18:52 | 43.67846 | 0.89658 | 33943 ft | 484 kts | 352° |
| 2026-05-04 18:53 | 43.74409 | 0.88915 | 33943 ft | 484 kts | 352° |
| 2026-05-04 18:53 | 43.81109 | 0.88156 | 33942 ft | 484 kts | 352° |
| 2026-05-04 18:54 | 43.87774 | 0.86935 | 33924 ft | 481 kts | 343° |
| 2026-05-04 18:54 | 43.94052 | 0.83880 | 33935 ft | 475 kts | 330° |
| 2026-05-04 18:55 | 44.00057 | 0.80005 | 33943 ft | 476 kts | 331° |
| 2026-05-04 18:55 | 44.09102 | 0.74187 | 33950 ft | 479 kts | 331° |
| 2026-05-04 18:56 | 44.15157 | 0.70263 | 33964 ft | 480 kts | 331° |
| 2026-05-04 18:56 | 44.21220 | 0.66323 | 33970 ft | 481 kts | 331° |
| 2026-05-04 18:57 | 44.27293 | 0.62366 | 33970 ft | 483 kts | 331° |
| 2026-05-04 18:57 | 44.33383 | 0.58391 | 33936 ft | 484 kts | 331° |
| 2026-05-04 18:58 | 44.39485 | 0.54397 | 33944 ft | 484 kts | 331° |
| 2026-05-04 18:58 | 44.45541 | 0.50424 | 33935 ft | 485 kts | 331° |
| 2026-05-04 18:59 | 44.51654 | 0.46373 | 33937 ft | 486 kts | 331° |
| 2026-05-04 18:59 | 44.57764 | 0.42311 | 33943 ft | 486 kts | 331° |
| 2026-05-04 19:00 | 44.63818 | 0.38282 | 33920 ft | 486 kts | 331° |
| 2026-05-04 19:00 | 44.69963 | 0.34182 | 33933 ft | 485 kts | 331° |
| 2026-05-04 19:01 | 44.76037 | 0.30120 | 33935 ft | 485 kts | 331° |
| 2026-05-04 19:01 | 44.82152 | 0.26021 | 33933 ft | 485 kts | 331° |
| 2026-05-04 19:02 | 44.87248 | 0.22597 | 33933 ft | 485 kts | 331° |
| 2026-05-04 19:02 | 44.93323 | 0.18507 | 33932 ft | 485 kts | 331° |
| 2026-05-04 19:03 | 44.99415 | 0.14396 | 33940 ft | 485 kts | 331° |
| 2026-05-04 19:03 | 45.05505 | 0.10276 | 33919 ft | 486 kts | 331° |
| 2026-05-04 19:04 | 45.11343 | 0.06317 | 33924 ft | 486 kts | 331° |
| 2026-05-04 19:04 | 45.17449 | 0.02169 | 33936 ft | 487 kts | 331° |
| 2026-05-04 19:05 | 45.23601 | -0.02022 | 33961 ft | 486 kts | 331° |
| 2026-05-04 19:05 | 45.29612 | -0.06117 | 33951 ft | 483 kts | 331° |
| 2026-05-04 19:06 | 45.35665 | -0.10259 | 33934 ft | 483 kts | 331° |
| 2026-05-04 19:06 | 45.41701 | -0.14467 | 33941 ft | 481 kts | 326° |
| 2026-05-04 19:07 | 45.47211 | -0.19781 | 33960 ft | 478 kts | 321° |
| 2026-05-04 19:07 | 45.52674 | -0.25192 | 33961 ft | 478 kts | 321° |
| 2026-05-04 19:08 | 45.58139 | -0.30610 | 33960 ft | 478 kts | 322° |
| 2026-05-04 19:08 | 45.63570 | -0.36006 | 33966 ft | 478 kts | 322° |
| 2026-05-04 19:09 | 45.69028 | -0.41440 | 33946 ft | 478 kts | 322° |
| 2026-05-04 19:09 | 45.74478 | -0.46885 | 33924 ft | 478 kts | 321° |
| 2026-05-04 19:10 | 45.79931 | -0.52355 | 33945 ft | 479 kts | 321° |
| 2026-05-04 19:10 | 45.85414 | -0.57818 | 33921 ft | 481 kts | 325° |
| 2026-05-04 19:11 | 45.88403 | -0.59983 | 33920 ft | 485 kts | 338° |
| 2026-05-04 19:11 | 45.91660 | -0.61277 | 33927 ft | 487 kts | 347° |
| 2026-05-04 19:11 | 45.98336 | -0.63107 | 33924 ft | 489 kts | 348° |
| 2026-05-04 19:12 | 46.08376 | -0.65886 | 33949 ft | 491 kts | 348° |
| 2026-05-04 19:13 | 46.15086 | -0.67786 | 33942 ft | 492 kts | 348° |
| 2026-05-04 19:13 | 46.21764 | -0.69687 | 33954 ft | 493 kts | 348° |
| 2026-05-04 19:14 | 46.28495 | -0.71607 | 33957 ft | 494 kts | 348° |
| 2026-05-04 19:14 | 46.35220 | -0.73530 | 33946 ft | 491 kts | 348° |
| 2026-05-04 19:15 | 46.41940 | -0.75460 | 33945 ft | 493 kts | 348° |
| 2026-05-04 19:15 | 46.48708 | -0.77407 | 33943 ft | 492 kts | 348° |
| 2026-05-04 19:16 | 46.55379 | -0.79329 | 33948 ft | 492 kts | 348° |
| 2026-05-04 19:16 | 46.62117 | -0.81275 | 33963 ft | 493 kts | 348° |
| 2026-05-04 19:17 | 46.68811 | -0.83213 | 33957 ft | 491 kts | 348° |
| 2026-05-04 19:17 | 46.75532 | -0.85165 | 33955 ft | 492 kts | 348° |
| 2026-05-04 19:18 | 46.82234 | -0.87115 | 33955 ft | 492 kts | 348° |
| 2026-05-04 19:18 | 46.88942 | -0.89073 | 33956 ft | 492 kts | 348° |
| 2026-05-04 19:19 | 46.95658 | -0.91038 | 33951 ft | 492 kts | 348° |
| 2026-05-04 19:19 | 47.02370 | -0.93006 | 33946 ft | 492 kts | 348° |
| 2026-05-04 19:20 | 47.09085 | -0.94981 | 33946 ft | 492 kts | 348° |
| 2026-05-04 19:20 | 47.15799 | -0.96960 | 33945 ft | 493 kts | 348° |
| 2026-05-04 19:21 | 47.22524 | -0.98948 | 33939 ft | 493 kts | 348° |
| 2026-05-04 19:21 | 47.29258 | -1.00943 | 33940 ft | 494 kts | 348° |
| 2026-05-04 19:22 | 47.35999 | -1.02946 | 33938 ft | 494 kts | 348° |
| 2026-05-04 19:22 | 47.42743 | -1.04955 | 33939 ft | 495 kts | 347° |
| 2026-05-04 19:23 | 47.49477 | -1.06966 | 33941 ft | 495 kts | 347° |
| 2026-05-04 19:23 | 47.56243 | -1.08992 | 33947 ft | 495 kts | 347° |
| 2026-05-04 19:24 | 47.63009 | -1.11023 | 33954 ft | 496 kts | 347° |
| 2026-05-04 19:24 | 47.69753 | -1.13053 | 33953 ft | 496 kts | 347° |
| 2026-05-04 19:25 | 47.76526 | -1.15097 | 33953 ft | 496 kts | 347° |
| 2026-05-04 19:25 | 47.83271 | -1.17139 | 33947 ft | 493 kts | 347° |
| 2026-05-04 19:26 | 47.89976 | -1.19173 | 33950 ft | 493 kts | 347° |
| 2026-05-04 19:26 | 47.96710 | -1.21222 | 33955 ft | 493 kts | 347° |
| 2026-05-04 19:27 | 48.03430 | -1.23272 | 33956 ft | 492 kts | 347° |
| 2026-05-04 19:27 | 48.10139 | -1.25324 | 33956 ft | 492 kts | 347° |
| 2026-05-04 19:28 | 48.16850 | -1.27382 | 33961 ft | 492 kts | 347° |
| 2026-05-04 19:28 | 48.23552 | -1.29444 | 33963 ft | 488 kts | 347° |
| 2026-05-04 19:29 | 48.30191 | -1.31490 | 33964 ft | 489 kts | 347° |
| 2026-05-04 19:29 | 48.36853 | -1.33550 | 33969 ft | 488 kts | 347° |
| 2026-05-04 19:30 | 48.43511 | -1.35613 | 33967 ft | 488 kts | 347° |
| 2026-05-04 19:30 | 48.50074 | -1.37653 | 33973 ft | 488 kts | 348° |
| 2026-05-04 19:31 | 48.56709 | -1.39721 | 33978 ft | 488 kts | 348° |
| 2026-05-04 19:31 | 48.63353 | -1.41797 | 33978 ft | 488 kts | 347° |
| 2026-05-04 19:32 | 48.70004 | -1.43880 | 33982 ft | 488 kts | 348° |
| 2026-05-04 19:32 | 48.76640 | -1.45965 | 33985 ft | 488 kts | 347° |
| 2026-05-04 19:33 | 48.83291 | -1.48060 | 33986 ft | 488 kts | 347° |
| 2026-05-04 19:33 | 48.89927 | -1.50155 | 33986 ft | 487 kts | 347° |
| 2026-05-04 19:34 | 48.96526 | -1.52246 | 33986 ft | 487 kts | 347° |
| 2026-05-04 19:34 | 49.03213 | -1.54369 | 33984 ft | 487 kts | 347° |
| 2026-05-04 19:35 | 49.09800 | -1.56466 | 33994 ft | 487 kts | 347° |
| 2026-05-04 19:35 | 49.16438 | -1.58586 | 33996 ft | 487 kts | 347° |
| 2026-05-04 19:36 | 49.23069 | -1.60709 | 33991 ft | 487 kts | 347° |
| 2026-05-04 19:36 | 49.29693 | -1.62836 | 33987 ft | 486 kts | 347° |
| 2026-05-04 19:37 | 49.36305 | -1.64964 | 34000 ft | 486 kts | 347° |
| 2026-05-04 19:37 | 49.42917 | -1.67099 | 33997 ft | 485 kts | 347° |
| 2026-05-04 19:38 | 49.49378 | -1.69190 | 33995 ft | 485 kts | 347° |
| 2026-05-04 19:38 | 49.56017 | -1.71341 | 34006 ft | 484 kts | 347° |
| 2026-05-04 19:39 | 49.62713 | -1.72265 | 33999 ft | 484 kts | 2° |
| 2026-05-04 19:39 | 49.69431 | -1.71703 | 33993 ft | 483 kts | 3° |
| 2026-05-04 19:40 | 49.76125 | -1.71166 | 33994 ft | 479 kts | 3° |
| 2026-05-04 19:40 | 49.82767 | -1.70614 | 33996 ft | 478 kts | 3° |
| 2026-05-04 19:41 | 49.89412 | -1.70051 | 33999 ft | 478 kts | 3° |
| 2026-05-04 19:41 | 49.96061 | -1.69486 | 33992 ft | 478 kts | 3° |
| 2026-05-04 19:42 | 50.02466 | -1.67916 | 33792 ft | 471 kts | 16° |
| 2026-05-04 19:42 | 50.05588 | -1.66417 | 33494 ft | 473 kts | 18° |
| 2026-05-04 19:42 | 50.08750 | -1.64883 | 32826 ft | 477 kts | 18° |
| 2026-05-04 19:42 | 50.11932 | -1.63356 | 31906 ft | 482 kts | 18° |
| 2026-05-04 19:43 | 50.15117 | -1.61825 | 31112 ft | 483 kts | 18° |
| 2026-05-04 19:43 | 50.18310 | -1.60283 | 30458 ft | 480 kts | 19° |
| 2026-05-04 19:43 | 50.21477 | -1.58748 | 29886 ft | 475 kts | 19° |
| 2026-05-04 19:43 | 50.24621 | -1.57218 | 29286 ft | 468 kts | 19° |
| 2026-05-04 19:44 | 50.27711 | -1.55709 | 28726 ft | 462 kts | 19° |
| 2026-05-04 19:44 | 50.30753 | -1.54222 | 28164 ft | 456 kts | 19° |
| 2026-05-04 19:44 | 50.33764 | -1.52748 | 27602 ft | 451 kts | 19° |
| 2026-05-04 19:44 | 50.36738 | -1.51290 | 27071 ft | 445 kts | 19° |
| 2026-05-04 19:45 | 50.39673 | -1.49850 | 26513 ft | 440 kts | 19° |
| 2026-05-04 19:45 | 50.42575 | -1.48424 | 25972 ft | 435 kts | 19° |
| 2026-05-04 19:45 | 50.45436 | -1.47017 | 25460 ft | 430 kts | 19° |
| 2026-05-04 19:45 | 50.48285 | -1.45614 | 24927 ft | 425 kts | 19° |
| 2026-05-04 19:46 | 50.51101 | -1.44225 | 24403 ft | 421 kts | 19° |
| 2026-05-04 19:46 | 50.53841 | -1.42688 | 23887 ft | 416 kts | 25° |
| 2026-05-04 19:46 | 50.56386 | -1.40664 | 23337 ft | 410 kts | 31° |
| 2026-05-04 19:46 | 50.58786 | -1.38583 | 22805 ft | 405 kts | 30° |
| 2026-05-04 19:47 | 50.61179 | -1.36532 | 22375 ft | 399 kts | 30° |
| 2026-05-04 19:47 | 50.63452 | -1.34588 | 21907 ft | 394 kts | 30° |
| 2026-05-04 19:47 | 50.65918 | -1.32476 | 21371 ft | 390 kts | 30° |
| 2026-05-04 19:47 | 50.68287 | -1.30440 | 20912 ft | 385 kts | 30° |
| 2026-05-04 19:48 | 50.69865 | -1.29082 | 20565 ft | 382 kts | 30° |
| 2026-05-04 19:48 | 50.72169 | -1.27094 | 20061 ft | 378 kts | 30° |
| 2026-05-04 19:48 | 50.74474 | -1.25103 | 19542 ft | 375 kts | 30° |
| 2026-05-04 19:48 | 50.76708 | -1.23107 | 19044 ft | 371 kts | 34° |
| 2026-05-04 19:49 | 50.78864 | -1.20872 | 18516 ft | 369 kts | 34° |
| 2026-05-04 19:49 | 50.81007 | -1.18659 | 17979 ft | 366 kts | 34° |
| 2026-05-04 19:49 | 50.83129 | -1.16474 | 17467 ft | 362 kts | 34° |
| 2026-05-04 19:49 | 50.85226 | -1.14313 | 16967 ft | 358 kts | 34° |
| 2026-05-04 19:50 | 50.87299 | -1.12172 | 16466 ft | 354 kts | 34° |
| 2026-05-04 19:50 | 50.89347 | -1.10053 | 15975 ft | 351 kts | 34° |
| 2026-05-04 19:50 | 50.91385 | -1.07941 | 15480 ft | 349 kts | 34° |
| 2026-05-04 19:50 | 50.93413 | -1.05836 | 14990 ft | 346 kts | 34° |
| 2026-05-04 19:51 | 50.95415 | -1.03757 | 14501 ft | 344 kts | 33° |
| 2026-05-04 19:51 | 50.97408 | -1.01685 | 14021 ft | 341 kts | 33° |
| 2026-05-04 19:51 | 50.99380 | -0.99605 | 13507 ft | 339 kts | 36° |
| 2026-05-04 19:51 | 51.01164 | -0.97234 | 13039 ft | 335 kts | 44° |
| 2026-05-04 19:52 | 51.02736 | -0.94515 | 12709 ft | 332 kts | 49° |
| 2026-05-04 19:52 | 51.04307 | -0.91696 | 12387 ft | 345 kts | 49° |
| 2026-05-04 19:52 | 51.05901 | -0.88874 | 12183 ft | 342 kts | 47° |
| 2026-05-04 19:52 | 51.07754 | -0.86589 | 11970 ft | 334 kts | 26° |
| 2026-05-04 19:53 | 51.09937 | -0.85614 | 11834 ft | 321 kts | 7° |
| 2026-05-04 19:53 | 51.12103 | -0.85290 | 11645 ft | 303 kts | 6° |
| 2026-05-04 19:53 | 51.14137 | -0.85008 | 11189 ft | 295 kts | 5° |
| 2026-05-04 19:53 | 51.16179 | -0.84715 | 10621 ft | 295 kts | 5° |
| 2026-05-04 19:54 | 51.18219 | -0.84409 | 10209 ft | 295 kts | 5° |
| 2026-05-04 19:54 | 51.20252 | -0.84101 | 9812 ft | 293 kts | 6° |
| 2026-05-04 19:54 | 51.22243 | -0.83794 | 9643 ft | 283 kts | 6° |
| 2026-05-04 19:54 | 51.24179 | -0.83496 | 9338 ft | 278 kts | 6° |
| 2026-05-04 19:55 | 51.26107 | -0.83201 | 8931 ft | 277 kts | 6° |
| 2026-05-04 19:55 | 51.28010 | -0.82914 | 8645 ft | 271 kts | 6° |
| 2026-05-04 19:55 | 51.29823 | -0.82639 | 8472 ft | 262 kts | 6° |
| 2026-05-04 19:55 | 51.31637 | -0.82366 | 8129 ft | 260 kts | 6° |
| 2026-05-04 19:56 | 51.33429 | -0.82100 | 7741 ft | 257 kts | 5° |
| 2026-05-04 19:56 | 51.34922 | -0.81852 | 7301 ft | 257 kts | 6° |
| 2026-05-04 19:56 | 51.36630 | -0.81556 | 7003 ft | 245 kts | 6° |
| 2026-05-04 19:56 | 51.38265 | -0.81268 | 6852 ft | 227 kts | 6° |
| 2026-05-04 19:57 | 51.39752 | -0.81001 | 6777 ft | 204 kts | 6° |
| 2026-05-04 19:57 | 51.41135 | -0.80751 | 6447 ft | 197 kts | 6° |
| 2026-05-04 19:57 | 51.42487 | -0.80511 | 6016 ft | 195 kts | 6° |
| 2026-05-04 19:57 | 51.43824 | -0.80276 | 5593 ft | 193 kts | 6° |
| 2026-05-04 19:58 | 51.45148 | -0.80047 | 5189 ft | 190 kts | 6° |
| 2026-05-04 19:58 | 51.46465 | -0.79828 | 4776 ft | 188 kts | 6° |
| 2026-05-04 19:58 | 51.47766 | -0.79622 | 4350 ft | 187 kts | 6° |
| 2026-05-04 19:58 | 51.49044 | -0.79440 | 4040 ft | 180 kts | 5° |
| 2026-05-04 19:59 | 51.50288 | -0.79283 | 4008 ft | 185 kts | 4° |
| 2026-05-04 19:59 | 51.51521 | -0.79793 | 4006 ft | 189 kts | 326° |
| 2026-05-04 19:59 | 51.52292 | -0.81462 | 4003 ft | 194 kts | 288° |
| 2026-05-04 19:59 | 51.52246 | -0.83612 | 4007 ft | 197 kts | 248° |
| 2026-05-04 20:00 | 51.51643 | -0.84962 | 3999 ft | 196 kts | 218° |
| 2026-05-04 20:00 | 51.50389 | -0.85707 | 4011 ft | 197 kts | 178° |
| 2026-05-04 20:00 | 51.49122 | -0.85050 | 4004 ft | 192 kts | 138° |
| 2026-05-04 20:00 | 51.48304 | -0.83404 | 4006 ft | 190 kts | 117° |
| 2026-05-04 20:01 | 51.47841 | -0.81456 | 4007 ft | 186 kts | 100° |
| 2026-05-04 20:01 | 51.47681 | -0.79382 | 3901 ft | 189 kts | 91° |
| 2026-05-04 20:01 | 51.47653 | -0.77402 | 3647 ft | 185 kts | 88° |
| 2026-05-04 20:01 | 51.47654 | -0.75375 | 3423 ft | 178 kts | 87° |
| 2026-05-04 20:02 | 51.47660 | -0.73428 | 3175 ft | 172 kts | 87° |
| 2026-05-04 20:02 | 51.47666 | -0.71549 | 2943 ft | 167 kts | 87° |
| 2026-05-04 20:02 | 51.47673 | -0.69702 | 2715 ft | 163 kts | 88° |
| 2026-05-04 20:02 | 51.47679 | -0.67906 | 2501 ft | 159 kts | 87° |
| 2026-05-04 20:03 | 51.47685 | -0.66160 | 2284 ft | 155 kts | 87° |
| 2026-05-04 20:03 | 51.47692 | -0.64439 | 2083 ft | 158 kts | 87° |
| 2026-05-04 20:03 | 51.47697 | -0.62713 | 1875 ft | 147 kts | 86° |
| 2026-05-04 20:03 | 51.47701 | -0.61162 | 1668 ft | 131 kts | 86° |
| 2026-05-04 20:04 | 51.47708 | -0.59777 | 1501 ft | 128 kts | 86° |
| 2026-05-04 20:04 | 51.47713 | -0.58349 | 1329 ft | 128 kts | 86° |
| 2026-05-04 20:04 | 51.47718 | -0.56929 | 1154 ft | 126 kts | 86° |
| 2026-05-04 20:04 | 51.47723 | -0.55516 | 989 ft | 129 kts | 86° |
| 2026-05-04 20:05 | 51.47729 | -0.54062 | 795 ft | 128 kts | 86° |
| 2026-05-04 20:05 | 51.47735 | -0.52603 | 638 ft | 133 kts | 87° |
| 2026-05-04 20:05 | 51.47747 | -0.51101 | 407 ft | 134 kts | 84° |
| 2026-05-04 20:05 | 51.47746 | -0.49674 | 216 ft | 126 kts | 83° |
| 2026-05-04 20:06 | 51.47751 | -0.48241 | 110 ft | 130 kts | 85° |
| 2026-05-04 20:06 | 51.47761 | -0.46950 | 91 ft | 92 kts | 91° |
| 2026-05-04 20:06 | 51.47756 | -0.46243 | 91 ft | 28 kts | 96° |
| 2026-05-04 20:06 | 51.47675 | -0.46110 | 84 ft | 19 kts | 141° |
| 2026-05-04 20:07 | 51.47603 | -0.46057 | 85 ft | 8 kts | 187° |
| 2026-05-04 20:07 | 51.47538 | -0.46081 | 87 ft | 12 kts | 194° |
| 2026-05-04 20:07 | 51.47514 | -0.46183 | 85 ft | 12 kts | 266° |
| 2026-05-04 20:07 | 51.47508 | -0.46329 | 88 ft | 15 kts | 266° |
| 2026-05-04 20:08 | 51.47505 | -0.46512 | 88 ft | 18 kts | 271° |
| 2026-05-04 20:08 | 51.47512 | -0.46709 | 84 ft | 6 kts | 257° |
| 2026-05-04 20:08 | 51.47502 | -0.46774 | 86 ft | 8 kts | 255° |
| 2026-05-04 20:08 | 51.47493 | -0.46885 | 84 ft | 12 kts | 266° |
| 2026-05-04 20:09 | 51.47486 | -0.47032 | 87 ft | 15 kts | 266° |
| 2026-05-04 20:09 | 51.47486 | -0.47213 | 87 ft | 18 kts | 271° |
| 2026-05-04 20:09 | 51.47490 | -0.47436 | 85 ft | 21 kts | 272° |
| 2026-05-04 20:09 | 51.47490 | -0.47667 | 85 ft | 23 kts | 269° |
| 2026-05-04 20:10 | 51.47488 | -0.47809 | 86 ft | 7 kts | 269° |
| 2026-05-04 20:10 | 51.47487 | -0.47921 | 85 ft | 15 kts | 269° |
| 2026-05-04 20:10 | 51.47484 | -0.48146 | 88 ft | 25 kts | 269° |
| 2026-05-04 20:10 | 51.47482 | -0.48307 | 88 ft | 8 kts | 260° |
| 2026-05-04 20:11 | 51.47389 | -0.48359 | 85 ft | 19 kts | 177° |
| 2026-05-04 20:11 | 51.47245 | -0.48358 | 86 ft | 23 kts | 180° |
| 2026-05-04 20:11 | 51.47078 | -0.48358 | 87 ft | 25 kts | 180° |
| 2026-05-04 20:11 | 51.46983 | -0.48357 | 88 ft | 3 kts | 180° |
| 2026-05-04 20:12 | 51.46938 | -0.48357 | 88 ft | 13 kts | 178° |
| 2026-05-04 20:12 | 51.46879 | -0.48433 | 84 ft | 12 kts | 263° |
| 2026-05-04 20:12 | 51.46878 | -0.48561 | 84 ft | 11 kts | 270° |
| 2026-05-04 20:12 | 51.46878 | -0.48602 | 84 ft | 0 kts | 269° |
| 2026-05-04 20:13 | 51.46896 | -0.48650 | 87 ft | 7 kts | 337° |
| 2026-05-04 20:13 | 51.46918 | -0.48647 | 87 ft | 6 kts | 7° |
| 2026-05-04 20:13 | 51.46929 | -0.48648 | 87 ft | 0 kts | 351° |